createdAt,value
2019-02-17T00:00:39.225Z,58.67
2019-02-17T00:03:06.886Z,50.60
2019-02-17T00:05:34.550Z,52.20
2019-02-17T00:08:02.207Z,49.03
2019-02-17T00:10:29.856Z,50.63
2019-02-17T00:12:57.524Z,47.77
2019-02-17T00:15:25.186Z,47.50
2019-02-17T00:17:52.857Z,40.47
2019-02-17T00:20:20.521Z,47.97
2019-02-17T00:22:48.177Z,50.27
2019-02-17T00:25:15.838Z,45.63
2019-02-17T00:27:43.490Z,43.63
2019-02-17T00:30:11.174Z,44.57
2019-02-17T00:32:38.842Z,44.07
2019-02-17T00:35:06.501Z,45.87
2019-02-17T00:37:34.162Z,42.33
2019-02-17T00:40:01.821Z,45.73
2019-02-17T00:42:29.473Z,47.13
2019-02-17T00:44:57.140Z,49.63
2019-02-17T00:47:24.803Z,45.90
2019-02-17T00:49:52.467Z,44.60
2019-02-17T00:52:20.121Z,40.93
2019-02-17T00:54:47.781Z,40.83
2019-02-17T00:57:15.446Z,41.57
2019-02-17T00:59:43.109Z,42.53
2019-02-17T01:02:10.949Z,43.43
2019-02-17T01:04:38.613Z,40.70
2019-02-17T01:07:06.269Z,48.03
2019-02-17T01:09:33.937Z,42.27
2019-02-17T01:12:01.597Z,44.80
2019-02-17T01:14:29.261Z,46.67
2019-02-17T01:16:56.917Z,50.23
2019-02-17T01:19:24.578Z,45.97
2019-02-17T01:21:52.241Z,38.30
2019-02-17T01:24:19.894Z,39.27
2019-02-17T01:26:47.550Z,36.37
2019-02-17T01:29:20.492Z,49.80
2019-02-17T01:31:44.587Z,45.43
2019-02-17T01:34:12.237Z,43.93
2019-02-17T01:36:39.900Z,51.57
2019-02-17T01:39:07.561Z,46.53
2019-02-17T01:41:35.226Z,44.17
2019-02-17T01:44:02.877Z,48.17
2019-02-17T01:46:30.546Z,36.60
2019-02-17T01:48:58.204Z,47.90
2019-02-17T01:51:25.870Z,42.60
2019-02-17T01:53:53.547Z,44.97
2019-02-17T01:56:21.214Z,48.47
2019-02-17T01:58:48.879Z,42.63
2019-02-17T02:01:17.157Z,45.07
2019-02-17T02:03:44.992Z,47.67
2019-02-17T02:06:12.667Z,43.53
2019-02-17T02:08:40.403Z,44.70
2019-02-17T02:11:08.066Z,48.53
2019-02-17T02:13:35.734Z,46.50
2019-02-17T02:16:03.393Z,48.73
2019-02-17T02:18:31.046Z,47.23
2019-02-17T02:20:58.724Z,48.77
2019-02-17T02:23:26.381Z,44.13
2019-02-17T02:25:54.056Z,47.77
2019-02-17T02:28:21.717Z,42.83
2019-02-17T02:30:49.391Z,39.43
2019-02-17T02:33:17.049Z,42.00
2019-02-17T02:35:44.718Z,39.80
2019-02-17T02:38:13.629Z,38.40
2019-02-17T02:40:41.419Z,42.73
2019-02-17T02:43:09.072Z,45.47
2019-02-17T02:45:36.735Z,37.17
2019-02-17T02:48:04.414Z,43.10
2019-02-17T02:50:32.082Z,41.13
2019-02-17T02:52:59.739Z,38.53
2019-02-17T02:55:27.394Z,41.27
2019-02-17T02:57:55.054Z,44.93
2019-02-17T03:00:22.708Z,41.07
2019-02-17T03:02:50.370Z,48.53
2019-02-17T03:05:18.038Z,44.30
2019-02-17T03:07:45.771Z,43.60
2019-02-17T03:10:13.541Z,41.97
2019-02-17T03:12:41.201Z,41.33
2019-02-17T03:15:08.858Z,50.90
2019-02-17T03:17:36.522Z,41.03
2019-02-17T03:20:04.180Z,40.83
2019-02-17T03:22:31.837Z,39.47
2019-02-17T03:24:59.497Z,38.13
2019-02-17T03:27:27.164Z,40.57
2019-02-17T03:30:04.458Z,42.17
2019-02-17T03:32:24.188Z,49.13
2019-02-17T03:34:51.939Z,39.27
2019-02-17T03:37:19.593Z,42.90
2019-02-17T03:39:47.249Z,42.33
2019-02-17T03:42:14.906Z,45.03
2019-02-17T03:44:42.582Z,38.90
2019-02-17T03:47:10.259Z,41.27
2019-02-17T03:49:37.983Z,42.53
2019-02-17T03:52:05.640Z,45.90
2019-02-17T03:54:33.307Z,40.87
2019-02-17T03:57:00.975Z,49.43
2019-02-17T03:59:28.628Z,46.20
2019-02-17T04:01:56.295Z,44.90
2019-02-17T04:04:23.945Z,47.90
2019-02-17T04:06:51.606Z,47.67
2019-02-17T04:09:19.262Z,47.67
2019-02-17T04:11:46.929Z,44.83
2019-02-17T04:14:14.585Z,44.93
2019-02-17T04:16:42.244Z,42.93
2019-02-17T04:19:09.905Z,39.83
2019-02-17T04:21:37.576Z,48.57
2019-02-17T04:24:05.233Z,45.17
2019-02-17T04:26:32.901Z,49.27
2019-02-17T04:29:00.568Z,42.23
2019-02-17T04:31:28.226Z,46.03
2019-02-17T04:33:55.891Z,45.87
2019-02-17T04:36:23.555Z,40.23
2019-02-17T04:38:51.214Z,40.97
2019-02-17T04:41:18.881Z,49.30
2019-02-17T04:43:46.532Z,46.27
2019-02-17T04:46:14.198Z,44.40
2019-02-17T04:48:41.853Z,46.37
2019-02-17T04:51:09.521Z,49.67
2019-02-17T04:53:37.181Z,43.13
2019-02-17T04:56:04.847Z,51.07
2019-02-17T04:58:32.567Z,41.47
2019-02-17T05:01:00.274Z,41.20
2019-02-17T05:03:27.985Z,46.27
2019-02-17T05:05:55.637Z,43.57
2019-02-17T05:08:23.308Z,45.47
2019-02-17T05:10:50.965Z,50.30
2019-02-17T05:13:18.640Z,51.20
2019-02-17T05:15:46.371Z,50.23
2019-02-17T05:18:14.027Z,49.17
2019-02-17T05:20:41.703Z,61.43
2019-02-17T05:23:09.372Z,52.40
2019-02-17T05:25:37.107Z,50.87
2019-02-17T05:28:04.765Z,47.87
2019-02-17T05:30:32.438Z,49.17
2019-02-17T05:33:00.102Z,49.77
2019-02-17T05:35:27.769Z,49.23
2019-02-17T05:37:55.430Z,54.13
2019-02-17T05:40:23.082Z,48.50
2019-02-17T05:42:50.761Z,47.53
2019-02-17T05:45:18.529Z,46.13
2019-02-17T05:47:46.188Z,46.47
2019-02-17T05:50:13.843Z,47.60
2019-02-17T05:52:41.505Z,49.57
2019-02-17T05:55:09.160Z,45.10
2019-02-17T05:57:36.822Z,51.83
2019-02-17T06:00:04.667Z,50.40
2019-02-17T06:02:32.325Z,54.30
2019-02-17T06:04:59.993Z,45.87
2019-02-17T06:07:27.663Z,52.63
2019-02-17T06:09:55.329Z,46.87
2019-02-17T06:12:22.998Z,49.10
2019-02-17T06:14:50.658Z,49.13
2019-02-17T06:17:18.328Z,52.23
2019-02-17T06:19:46.002Z,58.03
2019-02-17T06:22:13.665Z,56.40
2019-02-17T06:24:41.329Z,55.70
2019-02-17T06:27:09.015Z,52.53
2019-02-17T06:29:36.750Z,58.47
2019-02-17T06:32:04.409Z,51.93
2019-02-17T06:34:32.061Z,59.03
2019-02-17T06:36:59.729Z,56.80
2019-02-17T06:39:27.381Z,55.23
2019-02-17T06:41:55.055Z,64.83
2019-02-17T06:44:22.702Z,64.83
2019-02-17T06:46:54.595Z,66.23
2019-02-17T06:49:22.252Z,61.30
2019-02-17T06:51:49.914Z,68.87
2019-02-17T06:54:17.570Z,51.60
2019-02-17T06:56:49.658Z,56.03
2019-02-17T06:59:17.316Z,50.87
2019-02-17T07:01:44.996Z,57.07
2019-02-17T07:04:12.661Z,47.60
2019-02-17T07:06:43.813Z,52.57
2019-02-17T07:09:11.493Z,53.30
2019-02-17T07:11:39.179Z,56.53
2019-02-17T07:14:06.899Z,47.70
2019-02-17T07:16:34.554Z,48.70
2019-02-17T07:19:02.217Z,51.23
2019-02-17T07:21:29.876Z,49.63
2019-02-17T07:23:57.611Z,43.97
2019-02-17T07:26:25.361Z,47.40
2019-02-17T07:28:53.055Z,44.60
2019-02-17T07:31:22.542Z,43.23
2019-02-17T07:33:50.082Z,48.73
2019-02-17T07:36:17.742Z,49.83
2019-02-17T07:38:45.405Z,44.07
2019-02-17T07:41:13.057Z,46.77
2019-02-17T07:43:40.759Z,53.20
2019-02-17T07:46:08.418Z,45.03
2019-02-17T07:48:36.073Z,47.53
2019-02-17T07:51:03.750Z,50.23
2019-02-17T07:53:31.414Z,49.17
2019-02-17T07:55:59.070Z,51.13
2019-02-17T07:58:26.733Z,49.77
2019-02-17T08:00:54.385Z,50.07
2019-02-17T08:03:22.049Z,47.00
2019-02-17T08:05:49.710Z,48.33
2019-02-17T08:08:17.370Z,50.40
2019-02-17T08:10:45.035Z,52.33
2019-02-17T08:13:12.698Z,48.83
2019-02-17T08:15:40.357Z,43.90
2019-02-17T08:18:08.022Z,46.10
2019-02-17T08:20:36.566Z,43.47
2019-02-17T08:23:04.431Z,42.63
2019-02-17T08:25:32.090Z,51.23
2019-02-17T08:27:59.792Z,46.20
2019-02-17T08:30:27.461Z,52.73
2019-02-17T08:32:55.125Z,47.87
2019-02-17T08:35:22.791Z,47.53
2019-02-17T08:37:50.468Z,51.07
2019-02-17T08:40:18.190Z,47.77
2019-02-17T08:42:45.856Z,42.93
2019-02-17T08:45:13.519Z,49.73
2019-02-17T08:47:41.193Z,46.40
2019-02-17T08:50:08.856Z,47.10
2019-02-17T08:52:36.503Z,45.43
2019-02-17T08:55:04.208Z,48.77
2019-02-17T08:57:31.888Z,42.83
2019-02-17T08:59:59.546Z,52.93
2019-02-17T09:02:27.210Z,46.60
2019-02-17T09:04:55.063Z,43.80
2019-02-17T09:07:23.373Z,44.50
2019-02-17T09:09:51.118Z,49.53
2019-02-17T09:12:18.787Z,45.73
2019-02-17T09:14:46.452Z,53.03
2019-02-17T09:17:14.106Z,45.30
2019-02-17T09:19:41.770Z,42.47
2019-02-17T09:22:09.602Z,44.33
2019-02-17T09:24:37.269Z,47.20
2019-02-17T09:27:04.927Z,39.20
2019-02-17T09:29:32.593Z,41.83
2019-02-17T09:32:00.250Z,45.17
2019-02-17T09:34:27.907Z,39.40
2019-02-17T09:36:55.566Z,44.57
2019-02-17T09:39:23.246Z,42.47
2019-02-17T09:41:50.913Z,43.90
2019-02-17T09:44:18.582Z,42.77
2019-02-17T09:46:46.248Z,43.53
2019-02-17T09:49:13.901Z,48.40
2019-02-17T09:51:41.570Z,41.50
2019-02-17T09:54:09.239Z,42.63
2019-02-17T09:56:36.897Z,41.73
2019-02-17T09:59:04.553Z,43.17
2019-02-17T10:01:32.213Z,42.37
2019-02-17T10:03:59.882Z,39.83
2019-02-17T10:06:27.553Z,39.53
2019-02-17T10:08:55.246Z,40.40
2019-02-17T10:11:22.897Z,38.93
2019-02-17T10:13:50.562Z,39.40
2019-02-17T10:16:18.237Z,40.27
2019-02-17T10:18:45.896Z,35.97
2019-02-17T10:21:13.548Z,39.27
2019-02-17T10:23:41.205Z,39.40
2019-02-17T10:26:08.883Z,44.07
2019-02-17T10:28:42.383Z,40.13
2019-02-17T10:31:05.925Z,39.43
2019-02-17T10:33:33.596Z,43.80
2019-02-17T10:36:01.259Z,40.23
2019-02-17T10:38:28.922Z,41.10
2019-02-17T10:40:56.594Z,36.80
2019-02-17T10:43:24.248Z,41.73
2019-02-17T10:45:51.930Z,40.27
2019-02-17T10:48:19.598Z,36.70
2019-02-17T10:50:47.280Z,34.00
2019-02-17T10:53:14.957Z,36.40
2019-02-17T10:55:42.634Z,40.17
2019-02-17T10:58:10.313Z,39.40
2019-02-17T11:00:37.973Z,48.50
2019-02-17T11:03:05.635Z,38.83
2019-02-17T11:05:33.326Z,34.00
2019-02-17T11:08:00.993Z,41.13
2019-02-17T11:10:28.670Z,38.87
2019-02-17T11:12:56.338Z,34.93
2019-02-17T11:15:24.009Z,33.70
2019-02-17T11:17:51.682Z,39.70
2019-02-17T11:20:19.357Z,34.83
2019-02-17T11:22:47.118Z,37.33
2019-02-17T11:25:14.796Z,30.07
2019-02-17T11:27:42.469Z,29.97
2019-02-17T11:30:10.158Z,32.97
2019-02-17T11:32:37.823Z,34.10
2019-02-17T11:35:05.497Z,34.00
2019-02-17T11:37:33.169Z,30.73
2019-02-17T11:40:00.842Z,30.70
2019-02-17T11:42:28.498Z,32.33
2019-02-17T11:44:56.167Z,35.10
2019-02-17T11:47:23.829Z,35.57
2019-02-17T11:49:51.512Z,31.60
2019-02-17T11:52:19.189Z,34.40
2019-02-17T11:54:47.732Z,33.57
2019-02-17T11:57:15.477Z,33.57
2019-02-17T11:59:43.155Z,31.67
2019-02-17T12:02:10.818Z,33.43
2019-02-17T12:04:38.485Z,32.67
2019-02-17T12:07:06.162Z,31.60
2019-02-17T12:09:33.832Z,33.30
2019-02-17T12:12:01.518Z,31.13
2019-02-17T12:14:29.199Z,34.47
2019-02-17T12:16:56.864Z,32.37
2019-02-17T12:19:24.549Z,31.27
2019-02-17T12:21:56.873Z,35.77
2019-02-17T12:24:30.602Z,29.20
2019-02-17T12:27:05.220Z,28.50
2019-02-17T12:29:38.282Z,33.17
2019-02-17T12:32:05.647Z,30.23
2019-02-17T12:34:33.309Z,30.47
2019-02-17T12:37:00.983Z,29.30
2019-02-17T12:39:28.657Z,31.90
2019-02-17T12:41:56.314Z,25.13
2019-02-17T12:44:24.003Z,25.53
2019-02-17T12:46:51.681Z,25.33
2019-02-17T12:49:19.378Z,28.67
2019-02-17T12:51:47.052Z,29.77
2019-02-17T12:54:14.735Z,30.53
2019-02-17T12:56:42.402Z,26.43
2019-02-17T12:59:10.078Z,24.43
2019-02-17T13:01:37.749Z,23.23
2019-02-17T13:04:05.441Z,22.93
2019-02-17T13:06:33.127Z,26.63
2019-02-17T13:09:00.811Z,24.83
2019-02-17T13:11:28.498Z,23.97
2019-02-17T13:13:56.156Z,21.77
2019-02-17T13:16:23.836Z,25.93
2019-02-17T13:18:51.524Z,22.73
2019-02-17T13:21:19.219Z,25.03
2019-02-17T13:23:47.056Z,27.30
2019-02-17T13:26:14.846Z,25.50
2019-02-17T13:28:42.524Z,25.87
2019-02-17T13:31:10.193Z,26.07
2019-02-17T13:33:39.461Z,23.23
2019-02-17T13:36:07.307Z,20.60
2019-02-17T13:38:34.973Z,23.73
2019-02-17T13:41:02.655Z,22.87
2019-02-17T13:43:30.333Z,23.90
2019-02-17T13:45:58.020Z,23.73
2019-02-17T13:48:25.707Z,23.10
2019-02-17T13:50:53.385Z,23.57
2019-02-17T13:53:21.062Z,26.17
2019-02-17T13:55:48.746Z,25.53
2019-02-17T13:58:16.406Z,26.27
2019-02-17T14:00:44.106Z,24.77
2019-02-17T14:03:11.867Z,25.40
2019-02-17T14:05:39.547Z,24.13
2019-02-17T14:08:07.210Z,26.23
2019-02-17T14:10:34.891Z,26.17
2019-02-17T14:13:02.563Z,22.97
2019-02-17T14:15:30.250Z,28.43
2019-02-17T14:17:57.981Z,24.63
2019-02-17T14:20:25.770Z,25.67
2019-02-17T14:22:53.437Z,26.23
2019-02-17T14:25:21.105Z,24.50
2019-02-17T14:27:48.773Z,25.87
2019-02-17T14:30:16.488Z,27.03
2019-02-17T14:32:44.163Z,26.90
2019-02-17T14:35:11.847Z,30.03
2019-02-17T14:37:39.522Z,28.70
2019-02-17T14:40:07.201Z,26.90
2019-02-17T14:42:34.874Z,25.47
2019-02-17T14:45:02.650Z,23.77
2019-02-17T14:47:30.521Z,30.33
2019-02-17T14:49:58.198Z,29.63
2019-02-17T14:52:25.979Z,24.90
2019-02-17T14:54:53.658Z,30.00
2019-02-17T14:57:21.339Z,25.47
2019-02-17T14:59:49.006Z,24.03
2019-02-17T15:02:16.700Z,27.00
2019-02-17T15:04:44.399Z,25.70
2019-02-17T15:07:12.089Z,27.80
2019-02-17T15:09:39.766Z,29.97
2019-02-17T15:12:07.448Z,25.13
2019-02-17T15:14:35.097Z,25.10
2019-02-17T15:17:02.795Z,26.87
2019-02-17T15:19:30.457Z,23.67
2019-02-17T15:21:58.159Z,25.97
2019-02-17T15:24:25.911Z,23.77
2019-02-17T15:26:53.603Z,24.47
2019-02-17T15:29:21.281Z,27.43
2019-02-17T15:31:48.954Z,26.73
2019-02-17T15:34:18.924Z,23.47
2019-02-17T15:36:46.087Z,26.53
2019-02-17T15:39:13.869Z,30.23
2019-02-17T15:41:41.534Z,27.13
2019-02-17T15:44:09.209Z,25.20
2019-02-17T15:46:36.893Z,27.60
2019-02-17T15:49:04.558Z,26.13
2019-02-17T15:51:32.227Z,27.00
2019-02-17T15:53:59.898Z,23.17
2019-02-17T15:56:27.566Z,29.67
2019-02-17T15:58:55.240Z,28.53
2019-02-17T16:01:22.927Z,31.33
2019-02-17T16:03:50.625Z,25.77
2019-02-17T16:06:18.301Z,23.43
2019-02-17T16:08:45.973Z,25.00
2019-02-17T16:11:13.650Z,28.13
2019-02-17T16:13:41.333Z,24.80
2019-02-17T16:16:09.451Z,26.57
2019-02-17T16:18:37.268Z,25.27
2019-02-17T16:21:04.946Z,25.80
2019-02-17T16:23:32.617Z,28.13
2019-02-17T16:26:00.285Z,32.17
2019-02-17T16:28:27.976Z,26.67
2019-02-17T16:30:55.651Z,32.77
2019-02-17T16:33:23.339Z,31.47
2019-02-17T16:35:51.006Z,28.27
2019-02-17T16:38:18.672Z,31.50
2019-02-17T16:40:46.352Z,30.17
2019-02-17T16:43:14.017Z,31.40
2019-02-17T16:45:41.678Z,28.90
2019-02-17T16:48:09.353Z,33.67
2019-02-17T16:50:37.021Z,35.77
2019-02-17T16:53:04.693Z,33.63
2019-02-17T16:55:32.358Z,33.17
2019-02-17T16:58:00.025Z,35.40
2019-02-17T17:00:27.700Z,33.40
2019-02-17T17:02:55.370Z,37.57
2019-02-17T17:05:23.045Z,38.73
2019-02-17T17:07:50.714Z,37.27
2019-02-17T17:10:18.378Z,35.13
2019-02-17T17:12:46.051Z,36.43
2019-02-17T17:15:13.701Z,39.03
2019-02-17T17:17:41.373Z,36.80
2019-02-17T17:20:09.039Z,43.00
2019-02-17T17:22:36.685Z,40.57
2019-02-17T17:25:04.341Z,40.53
2019-02-17T17:27:32.010Z,41.53
2019-02-17T17:29:59.670Z,39.30
2019-02-17T17:32:27.328Z,41.83
2019-02-17T17:34:58.838Z,41.30
2019-02-17T17:37:24.369Z,44.43
2019-02-17T17:39:52.039Z,45.23
2019-02-17T17:42:19.689Z,43.17
2019-02-17T17:44:47.360Z,48.83
2019-02-17T17:47:15.026Z,48.10
2019-02-17T17:49:42.691Z,45.33
2019-02-17T17:52:10.349Z,42.63
2019-02-17T17:54:38.045Z,46.03
2019-02-17T17:57:05.716Z,46.40
2019-02-17T17:59:33.375Z,44.33
2019-02-17T18:02:01.030Z,48.33
2019-02-17T18:04:28.693Z,44.80
2019-02-17T18:06:57.113Z,47.60
2019-02-17T18:09:25.009Z,42.17
2019-02-17T18:11:52.680Z,42.83
2019-02-17T18:14:20.342Z,45.53
2019-02-17T18:16:48.004Z,47.93
2019-02-17T18:19:15.670Z,45.20
2019-02-17T18:21:43.329Z,47.37
2019-02-17T18:24:10.999Z,41.40
2019-02-17T18:26:38.662Z,44.90
2019-02-17T18:29:06.318Z,45.13
2019-02-17T18:31:33.976Z,43.03
2019-02-17T18:34:01.660Z,46.67
2019-02-17T18:36:29.383Z,48.23
2019-02-17T18:38:57.238Z,49.37
2019-02-17T18:41:24.906Z,51.13
2019-02-17T18:43:52.575Z,51.23
2019-02-17T18:46:20.232Z,49.40
2019-02-17T18:48:47.893Z,43.77
2019-02-17T18:51:15.560Z,52.83
2019-02-17T18:53:43.247Z,47.07
2019-02-17T18:56:10.908Z,47.20
2019-02-17T18:58:38.577Z,49.23
2019-02-17T19:01:06.234Z,45.43
2019-02-17T19:03:33.892Z,48.67
2019-02-17T19:06:01.550Z,52.83
2019-02-17T19:08:29.231Z,48.90
2019-02-17T19:10:56.891Z,51.30
2019-02-17T19:13:24.546Z,45.00
2019-02-17T19:15:53.791Z,52.20
2019-02-17T19:18:21.578Z,46.90
2019-02-17T19:20:49.256Z,47.03
2019-02-17T19:23:16.926Z,47.03
2019-02-17T19:25:44.592Z,51.63
2019-02-17T19:28:12.311Z,46.03
2019-02-17T19:30:39.997Z,52.40
2019-02-17T19:33:07.655Z,44.10
2019-02-17T19:35:42.086Z,44.30
2019-02-17T19:38:04.699Z,43.37
2019-02-17T19:40:32.365Z,51.80
2019-02-17T19:43:00.024Z,48.57
2019-02-17T19:45:27.689Z,43.27
2019-02-17T19:47:55.362Z,46.00
2019-02-17T19:50:23.036Z,44.53
2019-02-17T19:52:50.699Z,46.80
2019-02-17T19:55:18.377Z,48.90
2019-02-17T19:57:46.037Z,54.20
2019-02-17T20:00:13.697Z,48.97
2019-02-17T20:02:51.102Z,41.97
2019-02-17T20:05:20.549Z,38.67
2019-02-17T20:07:48.203Z,40.07
2019-02-17T20:10:15.861Z,41.57
2019-02-17T20:12:43.524Z,47.33
2019-02-17T20:15:11.184Z,43.23
2019-02-17T20:17:38.838Z,50.17
2019-02-17T20:20:06.510Z,44.10
2019-02-17T20:22:34.166Z,44.90
2019-02-17T20:25:01.910Z,42.30
2019-02-17T20:27:29.565Z,41.70
2019-02-17T20:29:57.225Z,46.73
2019-02-17T20:32:24.873Z,40.87
2019-02-17T20:34:52.541Z,49.70
2019-02-17T20:37:20.197Z,49.17
2019-02-17T20:39:47.853Z,44.57
2019-02-17T20:42:15.508Z,46.00
2019-02-17T20:44:43.178Z,44.47
2019-02-17T20:47:10.842Z,48.50
2019-02-17T20:49:38.508Z,41.80
2019-02-17T20:52:06.172Z,48.63
2019-02-17T20:54:33.839Z,43.07
2019-02-17T20:57:01.494Z,42.60
2019-02-17T20:59:29.167Z,48.47
2019-02-17T21:01:56.826Z,43.50
2019-02-17T21:04:24.494Z,44.20
2019-02-17T21:06:52.162Z,44.23
2019-02-17T21:09:19.813Z,43.80
2019-02-17T21:11:47.473Z,43.07
2019-02-17T21:14:15.134Z,46.30
2019-02-17T21:16:42.802Z,43.80
2019-02-17T21:19:10.461Z,47.10
2019-02-17T21:21:38.125Z,45.53
2019-02-17T21:24:05.787Z,38.37
2019-02-17T21:26:33.449Z,43.60
2019-02-17T21:29:01.103Z,46.07
2019-02-17T21:31:28.770Z,41.50
2019-02-17T21:33:56.427Z,44.37
2019-02-17T21:36:24.095Z,44.80
2019-02-17T21:38:51.753Z,43.20
2019-02-17T21:41:19.423Z,45.47
2019-02-17T21:43:47.077Z,44.67
2019-02-17T22:00:51.077Z,46.43
2019-02-17T22:03:18.742Z,42.87
2019-02-17T22:05:46.408Z,43.60
2019-02-17T22:08:14.077Z,44.60
2019-02-17T22:10:41.732Z,38.53
2019-02-17T22:13:09.401Z,44.23
2019-02-17T22:15:37.066Z,43.30
2019-02-17T22:18:04.725Z,43.83
2019-02-17T22:20:32.401Z,37.53
2019-02-17T22:23:00.054Z,40.73
2019-02-17T22:25:27.746Z,46.87
2019-02-17T22:27:55.403Z,40.83
2019-02-17T22:30:23.071Z,46.47
2019-02-17T22:32:50.725Z,41.33
2019-02-17T22:35:18.388Z,55.57
2019-02-17T22:37:46.042Z,54.73
2019-02-17T22:40:13.714Z,47.70
2019-02-17T22:42:41.365Z,60.30
2019-02-17T22:45:09.038Z,60.53
2019-02-17T22:47:36.706Z,47.67
2019-02-17T22:50:04.364Z,49.87
2019-02-17T22:52:32.031Z,42.63
2019-02-17T22:54:59.693Z,44.57
2019-02-17T22:57:27.352Z,40.90
2019-02-17T22:59:55.005Z,41.97
2019-02-17T23:02:22.675Z,40.90
2019-02-17T23:04:50.333Z,42.50
2019-02-17T23:07:17.995Z,45.87
2019-02-17T23:09:45.657Z,41.13
2019-02-17T23:12:13.317Z,47.57
2019-02-17T23:14:41.060Z,44.30
2019-02-17T23:17:08.736Z,42.57
2019-02-17T23:19:36.395Z,41.90
2019-02-17T23:22:04.058Z,44.57
2019-02-17T23:24:31.729Z,43.07
2019-02-17T23:26:59.386Z,40.63
2019-02-17T23:29:27.039Z,47.07
2019-02-17T23:31:54.710Z,45.90
2019-02-17T23:34:22.374Z,40.20
2019-02-17T23:36:50.039Z,45.67
2019-02-17T23:39:17.708Z,47.50
2019-02-17T23:41:45.378Z,42.83
2019-02-17T23:44:13.021Z,44.93
2019-02-17T23:46:40.685Z,42.40
2019-02-17T23:49:08.349Z,46.73
2019-02-17T23:51:36.021Z,47.90
2019-02-17T23:54:03.674Z,49.73
2019-02-17T23:56:31.336Z,46.83
2019-02-17T23:58:58.993Z,44.10
